sensor_id;sensor_type;location;lat;lon;timestamp;pressure;altitude;pressure_sealevel;temperature;humidity
51178;BME280;37243;49.814;8.652;2023-01-27T00:01:14;100651.91;;;25.15;26.22
51178;BME280;37243;49.814;8.652;2023-01-27T00:03:43;100656.56;;;25.14;26.58
51178;BME280;37243;49.814;8.652;2023-01-27T00:06:11;100647.84;;;25.12;26.29
51178;BME280;37243;49.814;8.652;2023-01-27T00:08:40;100638.50;;;25.13;26.99
51178;BME280;37243;49.814;8.652;2023-01-27T00:11:08;100651.09;;;25.14;26.63
51178;BME280;37243;49.814;8.652;2023-01-27T00:13:51;100640.91;;;25.15;27.01
51178;BME280;37243;49.814;8.652;2023-01-27T00:16:19;100632.69;;;25.15;26.31
51178;BME280;37243;49.814;8.652;2023-01-27T00:18:48;100637.88;;;25.16;26.67
51178;BME280;37243;49.814;8.652;2023-01-27T00:21:16;100642.56;;;25.16;26.98
51178;BME280;37243;49.814;8.652;2023-01-27T00:23:57;100639.81;;;25.16;26.71
51178;BME280;37243;49.814;8.652;2023-01-27T00:26:38;100635.13;;;25.16;26.61
51178;BME280;37243;49.814;8.652;2023-01-27T00:29:08;100627.69;;;25.17;26.65
51178;BME280;37243;49.814;8.652;2023-01-27T00:31:37;100626.91;;;25.16;26.49
51178;BME280;37243;49.814;8.652;2023-01-27T00:34:17;100627.69;;;25.17;26.43
51178;BME280;37243;49.814;8.652;2023-01-27T00:36:46;100629.63;;;25.16;26.32
51178;BME280;37243;49.814;8.652;2023-01-27T00:39:14;100621.41;;;25.16;26.32
51178;BME280;37243;49.814;8.652;2023-01-27T00:41:42;100621.06;;;25.18;26.47
51178;BME280;37243;49.814;8.652;2023-01-27T00:44:13;100621.06;;;25.18;26.25
51178;BME280;37243;49.814;8.652;2023-01-27T00:46:41;100624.63;;;25.18;26.81
51178;BME280;37243;49.814;8.652;2023-01-27T00:49:10;100629.31;;;25.18;26.31
51178;BME280;37243;49.814;8.652;2023-01-27T00:51:38;100624.63;;;25.18;26.93
51178;BME280;37243;49.814;8.652;2023-01-27T00:54:07;100630.13;;;25.18;26.54
51178;BME280;37243;49.814;8.652;2023-01-27T00:56:35;100616.41;;;25.18;26.52
51178;BME280;37243;49.814;8.652;2023-01-27T00:59:04;100623.53;;;25.19;26.92
51178;BME280;37243;49.814;8.652;2023-01-27T01:01:35;100615.28;;;25.19;26.80
51178;BME280;37243;49.814;8.652;2023-01-27T01:04:04;100626.28;;;25.19;27.01
51178;BME280;37243;49.814;8.652;2023-01-27T01:06:32;100631.75;;;25.19;26.22
51178;BME280;37243;49.814;8.652;2023-01-27T01:09:00;100633.38;;;25.20;27.09
51178;BME280;37243;49.814;8.652;2023-01-27T01:11:28;100626.28;;;25.19;26.71
51178;BME280;37243;49.814;8.652;2023-01-27T01:13:56;100633.38;;;25.20;26.22
51178;BME280;37243;49.814;8.652;2023-01-27T01:16:25;100635.00;;;25.21;26.38
51178;BME280;37243;49.814;8.652;2023-01-27T01:18:56;100636.59;;;25.22;26.63
51178;BME280;37243;49.814;8.652;2023-01-27T01:21:25;100639.66;;;25.21;26.32
51178;BME280;37243;49.814;8.652;2023-01-27T01:23:53;100636.09;;;25.20;26.70
51178;BME280;37243;49.814;8.652;2023-01-27T01:26:21;100636.59;;;25.22;26.31
51178;BME280;37243;49.814;8.652;2023-01-27T01:28:49;100640.50;;;25.21;26.48
51178;BME280;37243;49.814;8.652;2023-01-27T01:31:19;100641.31;;;25.22;26.30
51178;BME280;37243;49.814;8.652;2023-01-27T01:33:47;100645.97;;;25.21;26.88
51178;BME280;37243;49.814;8.652;2023-01-27T01:36:19;100631.09;;;25.22;26.59
51178;BME280;37243;49.814;8.652;2023-01-27T01:38:47;100639.34;;;25.22;26.61
51178;BME280;37243;49.814;8.652;2023-01-27T01:41:18;100643.72;;;25.23;27.13
51178;BME280;37243;49.814;8.652;2023-01-27T01:43:47;100639.34;;;25.22;26.34
51178;BME280;37243;49.814;8.652;2023-01-27T01:46:16;100636.59;;;25.22;26.78
51178;BME280;37243;49.814;8.652;2023-01-27T01:48:47;100638.22;;;25.23;26.70
51178;BME280;37243;49.814;8.652;2023-01-27T01:51:20;100636.59;;;25.22;27.00
51178;BME280;37243;49.814;8.652;2023-01-27T01:53:54;100643.72;;;25.23;26.85
51178;BME280;37243;49.814;8.652;2023-01-27T01:56:27;100640.97;;;25.23;26.45
51178;BME280;37243;49.814;8.652;2023-01-27T01:59:01;100628.06;;;25.24;26.47
51178;BME280;37243;49.814;8.652;2023-01-27T02:01:31;100620.94;;;25.23;26.37
51178;BME280;37243;49.814;8.652;2023-01-27T02:04:03;100622.56;;;25.24;26.38
51178;BME280;37243;49.814;8.652;2023-01-27T02:06:39;100620.63;;;25.24;26.67
51178;BME280;37243;49.814;8.652;2023-01-27T02:09:09;100617.91;;;25.24;26.42
51178;BME280;37243;49.814;8.652;2023-01-27T02:11:38;100624.19;;;25.25;26.58
51178;BME280;37243;49.814;8.652;2023-01-27T02:14:06;100616.75;;;25.25;26.39
51178;BME280;37243;49.814;8.652;2023-01-27T02:16:35;100616.44;;;25.27;26.55
51178;BME280;37243;49.814;8.652;2023-01-27T02:19:04;100614.81;;;25.26;26.70
51178;BME280;37243;49.814;8.652;2023-01-27T02:21:32;100616.75;;;25.25;26.35
51178;BME280;37243;49.814;8.652;2023-01-27T02:24:03;100616.75;;;25.25;27.09
51178;BME280;37243;49.814;8.652;2023-01-27T02:26:41;100610.16;;;25.26;26.74
51178;BME280;37243;49.814;8.652;2023-01-27T02:29:12;100612.88;;;25.26;26.97
51178;BME280;37243;49.814;8.652;2023-01-27T02:31:41;100609.31;;;25.26;26.72
51178;BME280;37243;49.814;8.652;2023-01-27T02:34:11;100615.63;;;25.26;26.81
51178;BME280;37243;49.814;8.652;2023-01-27T02:36:46;100610.97;;;25.27;26.46
51178;BME280;37243;49.814;8.652;2023-01-27T02:39:17;100614.53;;;25.27;26.98
51178;BME280;37243;49.814;8.652;2023-01-27T02:41:51;100620.00;;;25.27;26.51
51178;BME280;37243;49.814;8.652;2023-01-27T02:44:20;100621.94;;;25.27;26.37
51178;BME280;37243;49.814;8.652;2023-01-27T02:46:48;100625.50;;;25.27;26.70
51178;BME280;37243;49.814;8.652;2023-01-27T02:49:17;100621.13;;;25.26;26.40
51178;BME280;37243;49.814;8.652;2023-01-27T02:51:45;100627.94;;;25.29;26.31
51178;BME280;37243;49.814;8.652;2023-01-27T02:54:13;100624.69;;;25.27;26.83
51178;BME280;37243;49.814;8.652;2023-01-27T02:56:41;100633.75;;;25.27;26.68
51178;BME280;37243;49.814;8.652;2023-01-27T02:59:12;100624.34;;;25.28;26.94
51178;BME280;37243;49.814;8.652;2023-01-27T03:01:43;100624.34;;;25.28;27.08
51178;BME280;37243;49.814;8.652;2023-01-27T03:04:11;100625.19;;;25.29;26.42
51178;BME280;37243;49.814;8.652;2023-01-27T03:06:40;100620.84;;;25.28;26.56
51178;BME280;37243;49.814;8.652;2023-01-27T03:09:08;100631.47;;;25.29;27.14
51178;BME280;37243;49.814;8.652;2023-01-27T03:11:36;100626.31;;;25.28;27.04
51178;BME280;37243;49.814;8.652;2023-01-27T03:14:20;100628.75;;;25.29;27.14
51178;BME280;37243;49.814;8.652;2023-01-27T03:17:00;100633.13;;;25.30;26.68
51178;BME280;37243;49.814;8.652;2023-01-27T03:19:41;100634.22;;;25.29;26.83
51178;BME280;37243;49.814;8.652;2023-01-27T03:22:17;100633.94;;;25.31;26.37
51178;BME280;37243;49.814;8.652;2023-01-27T03:24:46;100633.13;;;25.30;26.48
51178;BME280;37243;49.814;8.652;2023-01-27T03:27:14;100634.72;;;25.31;26.77
51178;BME280;37243;49.814;8.652;2023-01-27T03:29:45;100634.72;;;25.31;26.61
51178;BME280;37243;49.814;8.652;2023-01-27T03:32:23;100630.84;;;25.32;26.87
51178;BME280;37243;49.814;8.652;2023-01-27T03:34:51;100631.97;;;25.31;26.45
51178;BME280;37243;49.814;8.652;2023-01-27T03:37:22;100636.34;;;25.32;26.43
51178;BME280;37243;49.814;8.652;2023-01-27T03:40:04;100637.97;;;25.33;27.17
51178;BME280;37243;49.814;8.652;2023-01-27T03:42:45;100636.34;;;25.32;26.85
51178;BME280;37243;49.814;8.652;2023-01-27T03:45:29;100640.72;;;25.33;26.48
51178;BME280;37243;49.814;8.652;2023-01-27T03:48:10;100634.72;;;25.31;26.52
51178;BME280;37243;49.814;8.652;2023-01-27T03:50:38;100636.03;;;25.34;27.21
51178;BME280;37243;49.814;8.652;2023-01-27T03:53:08;100636.34;;;25.32;27.05
51178;BME280;37243;49.814;8.652;2023-01-27T03:55:37;100637.16;;;25.33;26.38
51178;BME280;37243;49.814;8.652;2023-01-27T03:58:16;100641.84;;;25.32;26.93
51178;BME280;37243;49.814;8.652;2023-01-27T04:00:49;100645.06;;;25.34;26.70
51178;BME280;37243;49.814;8.652;2023-01-27T04:03:18;100638.78;;;25.34;26.75
51178;BME280;37243;49.814;8.652;2023-01-27T04:06:02;100639.59;;;25.34;26.61
51178;BME280;37243;49.814;8.652;2023-01-27T04:08:43;100643.47;;;25.33;26.79
51178;BME280;37243;49.814;8.652;2023-01-27T04:11:11;100642.34;;;25.34;27.17
51178;BME280;37243;49.814;8.652;2023-01-27T04:13:52;100648.16;;;25.33;26.71
51178;BME280;37243;49.814;8.652;2023-01-27T04:16:23;100647.00;;;25.34;26.82
51178;BME280;37243;49.814;8.652;2023-01-27T04:18:53;100640.41;;;25.35;26.43
51178;BME280;37243;49.814;8.652;2023-01-27T04:21:21;100646.38;;;25.37;26.90
51178;BME280;37243;49.814;8.652;2023-01-27T04:23:50;100650.28;;;25.36;26.49
51178;BME280;37243;49.814;8.652;2023-01-27T04:26:18;100655.44;;;25.37;27.01
51178;BME280;37243;49.814;8.652;2023-01-27T04:28:47;100649.94;;;25.37;26.68
51178;BME280;37243;49.814;8.652;2023-01-27T04:31:16;100654.31;;;25.38;26.97
51178;BME280;37243;49.814;8.652;2023-01-27T04:33:47;100644.44;;;25.37;26.41
51178;BME280;37243;49.814;8.652;2023-01-27T04:36:16;100649.94;;;25.37;27.15
51178;BME280;37243;49.814;8.652;2023-01-27T04:38:44;100649.66;;;25.39;26.44
51178;BME280;37243;49.814;8.652;2023-01-27T04:41:13;100651.56;;;25.38;27.09
51178;BME280;37243;49.814;8.652;2023-01-27T04:43:41;100657.06;;;25.38;26.70
51178;BME280;37243;49.814;8.652;2023-01-27T04:46:09;100657.06;;;25.38;26.69
51178;BME280;37243;49.814;8.652;2023-01-27T04:48:37;100651.56;;;25.38;27.25
51178;BME280;37243;49.814;8.652;2023-01-27T04:51:08;100651.56;;;25.38;27.09
51178;BME280;37243;49.814;8.652;2023-01-27T04:53:36;100648.50;;;25.40;26.73
51178;BME280;37243;49.814;8.652;2023-01-27T04:56:11;100662.56;;;25.38;26.97
51178;BME280;37243;49.814;8.652;2023-01-27T04:58:42;100664.97;;;25.40;26.78
51178;BME280;37243;49.814;8.652;2023-01-27T05:01:10;100659.50;;;25.40;26.62
51178;BME280;37243;49.814;8.652;2023-01-27T05:03:38;100660.31;;;25.40;27.24
51178;BME280;37243;49.814;8.652;2023-01-27T05:06:10;100654.81;;;25.40;26.79
51178;BME280;37243;49.814;8.652;2023-01-27T05:08:39;100661.94;;;25.42;26.57
51178;BME280;37243;49.814;8.652;2023-01-27T05:11:07;100657.56;;;25.40;26.67
51178;BME280;37243;49.814;8.652;2023-01-27T05:13:35;100659.19;;;25.42;26.88
51178;BME280;37243;49.814;8.652;2023-01-27T05:16:07;100666.59;;;25.41;27.02
51178;BME280;37243;49.814;8.652;2023-01-27T05:18:37;100667.44;;;25.42;26.88
51178;BME280;37243;49.814;8.652;2023-01-27T05:21:06;100659.19;;;25.42;27.14
51178;BME280;37243;49.814;8.652;2023-01-27T05:23:38;100658.84;;;25.43;26.90
51178;BME280;37243;49.814;8.652;2023-01-27T05:26:08;100656.13;;;25.43;27.18
51178;BME280;37243;49.814;8.652;2023-01-27T05:28:39;100655.28;;;25.42;26.98
51178;BME280;37243;49.814;8.652;2023-01-27T05:31:09;100659.69;;;25.44;26.65
51178;BME280;37243;49.814;8.652;2023-01-27T05:33:39;100669.03;;;25.42;27.13
51178;BME280;37243;49.814;8.652;2023-01-27T05:36:12;100665.16;;;25.44;27.04
51178;BME280;37243;49.814;8.652;2023-01-27T05:38:43;100676.16;;;25.44;27.20
51178;BME280;37243;49.814;8.652;2023-01-27T05:41:13;100687.16;;;25.44;27.28
51178;BME280;37243;49.814;8.652;2023-01-27T05:43:42;100683.28;;;25.45;26.96
51178;BME280;37243;49.814;8.652;2023-01-27T05:46:13;100677.78;;;25.45;26.65
51178;BME280;37243;49.814;8.652;2023-01-27T05:48:44;100689.59;;;25.45;26.60
51178;BME280;37243;49.814;8.652;2023-01-27T05:51:14;100686.03;;;25.45;27.35
51178;BME280;37243;49.814;8.652;2023-01-27T05:53:46;100689.59;;;25.45;27.33
51178;BME280;37243;49.814;8.652;2023-01-27T05:56:16;100684.09;;;25.45;26.56
51178;BME280;37243;49.814;8.652;2023-01-27T05:58:45;100689.25;;;25.47;27.25
51178;BME280;37243;49.814;8.652;2023-01-27T06:01:15;100687.63;;;25.46;26.54
51178;BME280;37243;49.814;8.652;2023-01-27T06:03:44;100690.38;;;25.46;27.36
51178;BME280;37243;49.814;8.652;2023-01-27T06:06:15;100689.25;;;25.47;27.24
51178;BME280;37243;49.814;8.652;2023-01-27T06:08:47;100691.19;;;25.46;27.33
51178;BME280;37243;49.814;8.652;2023-01-27T06:11:17;100690.38;;;25.46;26.77
51178;BME280;37243;49.814;8.652;2023-01-27T06:13:46;100688.44;;;25.46;26.67
51178;BME280;37243;49.814;8.652;2023-01-27T06:16:16;100693.69;;;25.48;26.76
51178;BME280;37243;49.814;8.652;2023-01-27T06:18:45;100697.50;;;25.47;27.08
51178;BME280;37243;49.814;8.652;2023-01-27T06:21:15;100697.50;;;25.47;26.99
51178;BME280;37243;49.814;8.652;2023-01-27T06:23:47;100692.81;;;25.47;27.24
51178;BME280;37243;49.814;8.652;2023-01-27T06:26:19;100701.91;;;25.48;26.93
51178;BME280;37243;49.814;8.652;2023-01-27T06:28:47;100695.28;;;25.49;26.94
51178;BME280;37243;49.814;8.652;2023-01-27T06:31:33;100699.97;;;25.48;27.22
51178;BME280;37243;49.814;8.652;2023-01-27T06:34:01;100695.28;;;25.49;27.13
51178;BME280;37243;49.814;8.652;2023-01-27T06:36:30;100703.50;;;25.49;27.17
51178;BME280;37243;49.814;8.652;2023-01-27T06:39:01;100707.91;;;25.50;26.97
51178;BME280;37243;49.814;8.652;2023-01-27T06:41:29;100709.53;;;25.51;27.17
51178;BME280;37243;49.814;8.652;2023-01-27T06:43:59;100707.91;;;25.50;27.46
51178;BME280;37243;49.814;8.652;2023-01-27T06:46:28;100719.69;;;25.50;26.74
51178;BME280;37243;49.814;8.652;2023-01-27T06:48:56;100720.50;;;25.51;27.34
51178;BME280;37243;49.814;8.652;2023-01-27T06:51:24;100717.25;;;25.49;26.96
51178;BME280;37243;49.814;8.652;2023-01-27T06:53:52;100718.88;;;25.50;27.26
51178;BME280;37243;49.814;8.652;2023-01-27T06:56:23;100722.75;;;25.49;27.02
51178;BME280;37243;49.814;8.652;2023-01-27T06:58:54;100721.13;;;25.48;26.68
51178;BME280;37243;49.814;8.652;2023-01-27T07:01:23;100726.63;;;25.48;26.59
51178;BME280;37243;49.814;8.652;2023-01-27T07:03:51;100725.78;;;25.47;26.75
51178;BME280;37243;49.814;8.652;2023-01-27T07:06:20;100734.03;;;25.47;26.86
51178;BME280;37243;49.814;8.652;2023-01-27T07:08:48;100735.97;;;25.47;26.55
51178;BME280;37243;49.814;8.652;2023-01-27T07:11:16;100737.63;;;25.48;27.00
51178;BME280;37243;49.814;8.652;2023-01-27T07:13:47;100735.97;;;25.47;26.51
51178;BME280;37243;49.814;8.652;2023-01-27T07:16:15;100740.38;;;25.48;26.58
51178;BME280;37243;49.814;8.652;2023-01-27T07:18:44;100739.53;;;25.47;26.73
51178;BME280;37243;49.814;8.652;2023-01-27T07:21:12;100745.00;;;25.47;26.47
51178;BME280;37243;49.814;8.652;2023-01-27T07:23:40;100742.28;;;25.47;26.95
51178;BME280;37243;49.814;8.652;2023-01-27T07:26:08;100744.72;;;25.49;27.33
51178;BME280;37243;49.814;8.652;2023-01-27T07:28:37;100748.28;;;25.49;27.01
51178;BME280;37243;49.814;8.652;2023-01-27T07:31:08;100747.16;;;25.50;26.84
51178;BME280;37243;49.814;8.652;2023-01-27T07:33:36;100752.66;;;25.50;26.99
51178;BME280;37243;49.814;8.652;2023-01-27T07:36:04;100754.59;;;25.50;27.26
51178;BME280;37243;49.814;8.652;2023-01-27T07:38:33;100763.94;;;25.49;26.67
51178;BME280;37243;49.814;8.652;2023-01-27T07:41:02;100760.91;;;25.50;26.64
51178;BME280;37243;49.814;8.652;2023-01-27T07:43:31;100773.53;;;25.51;27.26
51178;BME280;37243;49.814;8.652;2023-01-27T07:45:59;100768.31;;;25.50;27.04
51178;BME280;37243;49.814;8.652;2023-01-27T07:48:30;100767.72;;;25.53;27.27
51178;BME280;37243;49.814;8.652;2023-01-27T07:50:59;100770.44;;;25.53;27.43
51178;BME280;37243;49.814;8.652;2023-01-27T07:53:27;100766.06;;;25.52;26.89
51178;BME280;37243;49.814;8.652;2023-01-27T07:55:58;100775.94;;;25.53;26.85
51178;BME280;37243;49.814;8.652;2023-01-27T07:58:26;100772.38;;;25.52;27.48
51178;BME280;37243;49.814;8.652;2023-01-27T08:00:54;100773.19;;;25.53;27.10
51178;BME280;37243;49.814;8.652;2023-01-27T08:03:24;100778.69;;;25.53;27.33
51178;BME280;37243;49.814;8.652;2023-01-27T08:05:55;100777.59;;;25.54;27.50
51178;BME280;37243;49.814;8.652;2023-01-27T08:08:23;100783.06;;;25.54;27.41
51178;BME280;37243;49.814;8.652;2023-01-27T08:10:51;100781.44;;;25.53;26.84
51178;BME280;37243;49.814;8.652;2023-01-27T08:13:20;100785.81;;;25.54;27.07
51178;BME280;37243;49.814;8.652;2023-01-27T08:15:54;100786.59;;;25.54;27.21
51178;BME280;37243;49.814;8.652;2023-01-27T08:18:23;100780.31;;;25.54;26.94
51178;BME280;37243;49.814;8.652;2023-01-27T08:20:51;100782.75;;;25.55;27.48
51178;BME280;37243;49.814;8.652;2023-01-27T08:23:22;100773.69;;;25.55;26.94
51178;BME280;37243;49.814;8.652;2023-01-27T08:25:51;100781.94;;;25.55;27.47
51178;BME280;37243;49.814;8.652;2023-01-27T08:28:20;100781.94;;;25.55;27.13
51178;BME280;37243;49.814;8.652;2023-01-27T08:30:49;100788.25;;;25.55;27.03
51178;BME280;37243;49.814;8.652;2023-01-27T08:33:18;100782.75;;;25.55;27.75
51178;BME280;37243;49.814;8.652;2023-01-27T08:35:47;100790.69;;;25.57;27.08
51178;BME280;37243;49.814;8.652;2023-01-27T08:38:18;100794.56;;;25.56;27.61
51178;BME280;37243;49.814;8.652;2023-01-27T08:40:49;100797.31;;;25.56;27.47
51178;BME280;37243;49.814;8.652;2023-01-27T08:43:17;100799.72;;;25.57;27.02
51178;BME280;37243;49.814;8.652;2023-01-27T08:45:45;100798.94;;;25.57;27.09
51178;BME280;37243;49.814;8.652;2023-01-27T08:48:13;100806.34;;;25.56;27.04
51178;BME280;37243;49.814;8.652;2023-01-27T08:50:42;100811.84;;;25.56;27.37
51178;BME280;37243;49.814;8.652;2023-01-27T08:53:10;100820.59;;;25.58;27.39
51178;BME280;37243;49.814;8.652;2023-01-27T08:55:39;100813.16;;;25.59;27.18
51178;BME280;37243;49.814;8.652;2023-01-27T08:58:09;100822.53;;;25.58;27.40
51178;BME280;37243;49.814;8.652;2023-01-27T09:00:38;100814.28;;;25.58;26.96
51178;BME280;37243;49.814;8.652;2023-01-27T09:03:06;100820.59;;;25.58;27.29
51178;BME280;37243;49.814;8.652;2023-01-27T09:05:35;100817.53;;;25.60;27.20
51178;BME280;37243;49.814;8.652;2023-01-27T09:08:04;100821.41;;;25.59;27.16
51178;BME280;37243;49.814;8.652;2023-01-27T09:10:36;100821.41;;;25.59;27.46
51178;BME280;37243;49.814;8.652;2023-01-27T09:13:09;100822.72;;;25.61;27.36
51178;BME280;37243;49.814;8.652;2023-01-27T09:15:37;100821.91;;;25.61;27.18
51178;BME280;37243;49.814;8.652;2023-01-27T09:18:08;100824.66;;;25.61;27.33
51178;BME280;37243;49.814;8.652;2023-01-27T09:20:37;100830.13;;;25.61;27.56
51178;BME280;37243;49.814;8.652;2023-01-27T09:23:05;100841.94;;;25.61;27.72
51178;BME280;37243;49.814;8.652;2023-01-27T09:25:33;100835.63;;;25.61;27.34
51178;BME280;37243;49.814;8.652;2023-01-27T09:28:02;100843.59;;;25.62;27.19
51178;BME280;37243;49.814;8.652;2023-01-27T09:30:33;100835.00;;;25.64;27.57
51178;BME280;37243;49.814;8.652;2023-01-27T09:33:01;100839.69;;;25.63;27.57
51178;BME280;37243;49.814;8.652;2023-01-27T09:35:34;100841.31;;;25.64;27.56
51178;BME280;37243;49.814;8.652;2023-01-27T09:38:05;100842.16;;;25.65;27.01
51178;BME280;37243;49.814;8.652;2023-01-27T09:40:40;100842.16;;;25.65;26.88
51178;BME280;37243;49.814;8.652;2023-01-27T09:43:35;100844.38;;;25.63;27.66
51178;BME280;37243;49.814;8.652;2023-01-27T09:46:40;100844.38;;;25.63;26.85
51178;BME280;37243;49.814;8.652;2023-01-27T09:49:25;100855.06;;;25.64;27.41
51178;BME280;37243;49.814;8.652;2023-01-27T09:52:13;100840.50;;;25.64;26.94
51178;BME280;37243;49.814;8.652;2023-01-27T09:54:54;100853.13;;;25.65;27.58
51178;BME280;37243;49.814;8.652;2023-01-27T09:57:35;100845.72;;;25.65;26.98
51178;BME280;37243;49.814;8.652;2023-01-27T10:00:15;100846.81;;;25.64;26.85
51178;BME280;37243;49.814;8.652;2023-01-27T10:03:18;100846.00;;;25.64;27.31
51178;BME280;37243;49.814;8.652;2023-01-27T10:06:14;100854.25;;;25.64;27.09
51178;BME280;37243;49.814;8.652;2023-01-27T10:09:08;100835.00;;;25.64;27.21
51178;BME280;37243;49.814;8.652;2023-01-27T10:11:45;100843.75;;;25.66;27.12
51178;BME280;37243;49.814;8.652;2023-01-27T10:14:22;100837.13;;;25.67;27.08
51178;BME280;37243;49.814;8.652;2023-01-27T10:17:04;100836.31;;;25.66;27.18
51178;BME280;37243;49.814;8.652;2023-01-27T10:20:01;100827.25;;;25.66;27.78
51178;BME280;37243;49.814;8.652;2023-01-27T10:22:44;100846.19;;;25.67;27.40
51178;BME280;37243;49.814;8.652;2023-01-27T10:25:25;100842.63;;;25.67;27.56
51178;BME280;37243;49.814;8.652;2023-01-27T10:27:58;100838.78;;;25.68;27.51
51178;BME280;37243;49.814;8.652;2023-01-27T10:30:33;100837.63;;;25.69;27.30
51178;BME280;37243;49.814;8.652;2023-01-27T10:33:10;100829.72;;;25.67;27.65
51178;BME280;37243;49.814;8.652;2023-01-27T10:35:50;100833.78;;;25.70;27.95
51178;BME280;37243;49.814;8.652;2023-01-27T10:38:29;100829.09;;;25.70;27.40
51178;BME280;37243;49.814;8.652;2023-01-27T10:41:08;100821.97;;;25.69;27.53
51178;BME280;37243;49.814;8.652;2023-01-27T10:43:48;100820.03;;;25.70;27.66
51178;BME280;37243;49.814;8.652;2023-01-27T10:46:24;100818.91;;;25.71;27.62
51178;BME280;37243;49.814;8.652;2023-01-27T10:49:00;100826.03;;;25.72;27.60
51178;BME280;37243;49.814;8.652;2023-01-27T10:51:35;100822.47;;;25.71;27.30
51178;BME280;37243;49.814;8.652;2023-01-27T10:54:09;100819.41;;;25.73;27.90
51178;BME280;37243;49.814;8.652;2023-01-27T10:56:43;100811.16;;;25.73;27.56
51178;BME280;37243;49.814;8.652;2023-01-27T10:59:19;100825.41;;;25.75;27.70
51178;BME280;37243;49.814;8.652;2023-01-27T11:01:52;100812.81;;;25.74;27.94
51178;BME280;37243;49.814;8.652;2023-01-27T11:04:29;100807.31;;;25.74;27.56
51178;BME280;37243;49.814;8.652;2023-01-27T11:07:05;100803.41;;;25.75;27.61
51178;BME280;37243;49.814;8.652;2023-01-27T11:09:35;100806.16;;;25.75;27.87
51178;BME280;37243;49.814;8.652;2023-01-27T11:12:09;100809.72;;;25.75;27.29
51178;BME280;37243;49.814;8.652;2023-01-27T11:14:43;100806.97;;;25.75;27.41
51178;BME280;37243;49.814;8.652;2023-01-27T11:17:16;100810.53;;;25.76;27.91
51178;BME280;37243;49.814;8.652;2023-01-27T11:19:53;100812.47;;;25.75;27.26
51178;BME280;37243;49.814;8.652;2023-01-27T11:22:29;100811.34;;;25.76;27.95
51178;BME280;37243;49.814;8.652;2023-01-27T11:25:05;100795.69;;;25.77;27.98
51178;BME280;37243;49.814;8.652;2023-01-27T11:27:45;100812.19;;;25.77;27.93
51178;BME280;37243;49.814;8.652;2023-01-27T11:30:21;100804.72;;;25.77;27.77
51178;BME280;37243;49.814;8.652;2023-01-27T11:32:58;100807.47;;;25.77;27.38
51178;BME280;37243;49.814;8.652;2023-01-27T11:35:29;100805.53;;;25.78;27.73
51178;BME280;37243;49.814;8.652;2023-01-27T11:38:00;100803.59;;;25.78;27.43
51178;BME280;37243;49.814;8.652;2023-01-27T11:40:31;100798.94;;;25.79;28.21
51178;BME280;37243;49.814;8.652;2023-01-27T11:43:01;100801.97;;;25.77;28.11
51178;BME280;37243;49.814;8.652;2023-01-27T11:45:33;100809.91;;;25.79;27.68
51178;BME280;37243;49.814;8.652;2023-01-27T11:48:06;100809.91;;;25.79;27.17
51178;BME280;37243;49.814;8.652;2023-01-27T11:50:40;100803.94;;;25.77;27.49
51178;BME280;37243;49.814;8.652;2023-01-27T11:53:16;100802.78;;;25.78;27.92
51178;BME280;37243;49.814;8.652;2023-01-27T11:55:49;100801.69;;;25.79;27.54
51178;BME280;37243;49.814;8.652;2023-01-27T11:58:22;100793.72;;;25.77;27.20
51178;BME280;37243;49.814;8.652;2023-01-27T12:00:55;100791.78;;;25.78;27.58
51178;BME280;37243;49.814;8.652;2023-01-27T12:03:42;100796.19;;;25.79;27.65
51178;BME280;37243;49.814;8.652;2023-01-27T12:06:16;100791.78;;;25.78;27.76
51178;BME280;37243;49.814;8.652;2023-01-27T12:08:47;100798.09;;;25.78;27.58
51178;BME280;37243;49.814;8.652;2023-01-27T12:11:21;100798.94;;;25.79;27.51
51178;BME280;37243;49.814;8.652;2023-01-27T12:13:52;100798.94;;;25.79;27.80
51178;BME280;37243;49.814;8.652;2023-01-27T12:16:23;100794.25;;;25.79;27.20
51178;BME280;37243;49.814;8.652;2023-01-27T12:18:56;100789.25;;;25.81;27.25
51178;BME280;37243;49.814;8.652;2023-01-27T12:21:37;100785.69;;;25.81;27.12
51178;BME280;37243;49.814;8.652;2023-01-27T12:24:21;100784.06;;;25.80;27.16
51178;BME280;37243;49.814;8.652;2023-01-27T12:26:50;100786.50;;;25.81;27.13
51178;BME280;37243;49.814;8.652;2023-01-27T12:29:21;100775.50;;;25.81;27.45
51178;BME280;37243;49.814;8.652;2023-01-27T12:31:53;100788.94;;;25.83;27.54
51178;BME280;37243;49.814;8.652;2023-01-27T12:34:26;100784.56;;;25.82;27.74
51178;BME280;37243;49.814;8.652;2023-01-27T12:36:55;100784.56;;;25.82;27.66
51178;BME280;37243;49.814;8.652;2023-01-27T12:39:39;100788.13;;;25.82;27.37
51178;BME280;37243;49.814;8.652;2023-01-27T12:42:33;100782.94;;;25.81;27.44
51178;BME280;37243;49.814;8.652;2023-01-27T12:45:21;100779.34;;;25.80;27.72
51178;BME280;37243;49.814;8.652;2023-01-27T12:47:55;100777.94;;;25.83;28.12
51178;BME280;37243;49.814;8.652;2023-01-27T12:50:26;100775.19;;;25.83;27.46
51178;BME280;37243;49.814;8.652;2023-01-27T12:53:08;100777.13;;;25.82;27.66
51178;BME280;37243;49.814;8.652;2023-01-27T12:55:42;100776.81;;;25.84;27.92
51178;BME280;37243;49.814;8.652;2023-01-27T12:58:32;100773.25;;;25.83;27.70
51178;BME280;37243;49.814;8.652;2023-01-27T13:01:03;100773.44;;;25.87;28.17
51178;BME280;37243;49.814;8.652;2023-01-27T13:03:37;100769.88;;;25.86;27.88
51178;BME280;37243;49.814;8.652;2023-01-27T13:06:07;100770.69;;;25.87;27.89
51178;BME280;37243;49.814;8.652;2023-01-27T13:08:38;100770.38;;;25.88;27.52
51178;BME280;37243;49.814;8.652;2023-01-27T13:11:11;100772.81;;;25.90;28.15
51178;BME280;37243;49.814;8.652;2023-01-27T13:13:48;100764.88;;;25.88;27.60
51178;BME280;37243;49.814;8.652;2023-01-27T13:16:25;100765.66;;;25.89;27.82